createdAt,value
2022-08-03T00:01:37.081Z,21.34
2022-08-03T00:04:39.933Z,21.10
2022-08-03T00:07:42.499Z,20.95
2022-08-03T00:10:45.484Z,20.87
2022-08-03T00:13:48.006Z,20.74
2022-08-03T00:16:50.737Z,20.65
2022-08-03T00:19:53.346Z,20.60
2022-08-03T00:22:56.215Z,20.62
2022-08-03T00:25:58.691Z,20.61
2022-08-03T00:29:01.632Z,20.65
2022-08-03T00:32:04.272Z,20.59
2022-08-03T00:35:09.852Z,20.55
2022-08-03T00:38:15.476Z,20.62
2022-08-03T00:41:18.268Z,20.69
2022-08-03T00:44:20.729Z,20.60
2022-08-03T00:47:23.526Z,20.54
2022-08-03T00:50:28.884Z,20.62
2022-08-03T00:53:32.473Z,20.58
2022-08-03T00:56:35.970Z,20.54
2022-08-03T00:59:39.706Z,20.49
2022-08-03T01:02:42.394Z,20.46
2022-08-03T01:06:17.470Z,20.31
2022-08-03T01:09:27.123Z,20.23
2022-08-03T01:12:46.202Z,20.11
2022-08-03T01:15:48.694Z,20.01
2022-08-03T01:19:08.692Z,19.94
2022-08-03T01:22:23.570Z,19.87
2022-08-03T01:25:48.357Z,19.82
2022-08-03T01:29:37.200Z,19.78
2022-08-03T01:33:01.640Z,19.75
2022-08-03T01:36:13.783Z,19.70
2022-08-03T01:39:19.317Z,19.65
2022-08-03T01:42:24.069Z,19.62
2022-08-03T01:45:28.410Z,19.55
2022-08-03T01:48:39.701Z,19.51
2022-08-03T01:51:57.680Z,19.46
2022-08-03T01:55:08.368Z,19.40
2022-08-03T01:58:15.055Z,19.38
2022-08-03T02:01:21.988Z,19.36
2022-08-03T02:04:26.333Z,19.53
2022-08-03T02:07:30.564Z,19.56
2022-08-03T02:10:36.295Z,19.44
2022-08-03T02:13:40.395Z,19.43
2022-08-03T02:16:45.986Z,19.39
2022-08-03T02:19:50.645Z,19.33
2022-08-03T02:22:54.046Z,19.26
2022-08-03T02:26:01.888Z,19.25
2022-08-03T02:29:13.855Z,19.21
2022-08-03T02:32:20.478Z,19.16
2022-08-03T02:35:26.334Z,19.12
2022-08-03T02:38:34.454Z,19.06
2022-08-03T02:41:44.304Z,19.05
2022-08-03T02:44:50.396Z,19.05
2022-08-03T02:47:58.242Z,19.19
2022-08-03T02:51:04.026Z,19.30
2022-08-03T02:54:09.537Z,19.31
2022-08-03T02:57:14.205Z,19.32
2022-08-03T03:00:28.170Z,19.32
2022-08-03T03:03:35.288Z,19.29
2022-08-03T03:06:48.421Z,19.27
2022-08-03T03:09:52.224Z,19.21
2022-08-03T03:12:58.696Z,19.22
2022-08-03T03:16:03.825Z,19.09
2022-08-03T03:19:08.752Z,18.93
2022-08-03T03:22:12.633Z,18.82
2022-08-03T03:25:16.670Z,18.78
2022-08-03T03:28:19.651Z,18.73
2022-08-03T03:31:22.986Z,18.63
2022-08-03T03:34:25.746Z,18.60
2022-08-03T03:37:28.500Z,18.74
2022-08-03T03:40:31.781Z,18.91
2022-08-03T03:43:34.683Z,18.85
2022-08-03T03:46:38.880Z,18.84
2022-08-03T03:49:42.863Z,18.91
2022-08-03T03:52:45.422Z,19.01
2022-08-03T03:55:57.812Z,19.02
2022-08-03T03:59:04.811Z,19.10
2022-08-03T04:02:09.255Z,19.10
2022-08-03T04:05:31.615Z,19.18
2022-08-03T04:08:52.796Z,19.28
2022-08-03T04:12:01.035Z,19.27
2022-08-03T04:15:04.585Z,19.26
2022-08-03T04:18:12.001Z,19.31
2022-08-03T04:21:17.964Z,19.36
2022-08-03T04:24:22.138Z,19.44
2022-08-03T04:27:37.256Z,19.57
2022-08-03T04:30:47.532Z,19.60
2022-08-03T04:33:52.837Z,19.59
2022-08-03T04:36:59.790Z,19.70
2022-08-03T04:40:06.061Z,19.82
2022-08-03T04:43:11.428Z,19.83
2022-08-03T04:46:15.351Z,19.93
2022-08-03T04:49:20.095Z,20.04
2022-08-03T04:52:22.815Z,20.12
2022-08-03T04:55:27.584Z,20.14
2022-08-03T04:58:30.269Z,20.27
2022-08-03T05:01:33.093Z,20.33
2022-08-03T05:04:35.783Z,20.32
2022-08-03T05:07:38.622Z,20.39
2022-08-03T05:10:41.644Z,20.42
2022-08-03T05:13:45.452Z,20.50
2022-08-03T05:16:47.934Z,20.51
2022-08-03T05:19:50.907Z,20.64
2022-08-03T05:22:53.545Z,20.88
2022-08-03T05:25:56.766Z,20.94
2022-08-03T05:28:59.658Z,21.02
2022-08-03T05:32:08.090Z,21.18
2022-08-03T05:35:55.835Z,21.30
2022-08-03T05:38:34.759Z,21.50
2022-08-03T05:41:37.986Z,21.77
2022-08-03T05:44:42.164Z,21.75
2022-08-03T05:47:45.475Z,21.88
2022-08-03T05:50:48.475Z,21.82
2022-08-03T05:53:50.931Z,21.81
2022-08-03T05:56:53.649Z,22.07
2022-08-03T05:59:58.785Z,22.23
2022-08-03T06:03:02.453Z,22.21
2022-08-03T06:06:05.444Z,22.45
2022-08-03T06:09:08.031Z,22.64
2022-08-03T06:12:14.058Z,22.84
2022-08-03T06:15:18.763Z,22.92
2022-08-03T06:18:21.561Z,22.99
2022-08-03T06:21:24.044Z,23.10
2022-08-03T06:24:30.152Z,23.11
2022-08-03T06:27:37.350Z,23.25
2022-08-03T06:30:41.717Z,23.36
2022-08-03T06:34:31.297Z,23.60
2022-08-03T06:37:07.113Z,23.62
2022-08-03T06:40:13.977Z,23.77
2022-08-03T06:43:17.096Z,24.00
2022-08-03T06:46:20.418Z,24.15
2022-08-03T06:49:23.258Z,24.15
2022-08-03T06:52:37.984Z,24.42
2022-08-03T06:55:42.313Z,24.82
2022-08-03T06:58:46.971Z,25.05
2022-08-03T07:01:49.981Z,25.20
2022-08-03T07:04:52.588Z,25.46
2022-08-03T07:07:57.220Z,25.41
2022-08-03T07:10:59.951Z,25.69
2022-08-03T07:14:02.858Z,25.57
2022-08-03T07:17:11.913Z,25.44
2022-08-03T07:20:17.378Z,25.76
2022-08-03T07:23:19.865Z,26.08
2022-08-03T07:26:22.707Z,27.01
2022-08-03T07:29:25.251Z,27.34
2022-08-03T07:32:31.307Z,27.95
2022-08-03T07:35:34.084Z,28.40
2022-08-03T07:38:37.176Z,28.01
2022-08-03T07:41:39.779Z,29.28
2022-08-03T07:44:44.764Z,30.36
2022-08-03T07:47:53.619Z,30.57
2022-08-03T07:50:57.171Z,31.36
2022-08-03T07:54:00.891Z,31.47
2022-08-03T07:57:03.969Z,31.26
2022-08-03T08:00:12.584Z,30.63
2022-08-03T08:03:15.982Z,31.44
2022-08-03T08:06:18.545Z,31.29
2022-08-03T08:09:21.411Z,32.48
2022-08-03T08:12:23.963Z,33.05
2022-08-03T08:15:26.804Z,33.63
2022-08-03T08:18:32.111Z,33.25
2022-08-03T08:21:53.199Z,32.95
2022-08-03T08:25:04.464Z,34.29
2022-08-03T08:28:29.133Z,31.14
2022-08-03T08:31:30.192Z,32.06
2022-08-03T08:34:33.047Z,32.70
2022-08-03T08:37:35.797Z,32.57
2022-08-03T08:40:40.485Z,34.25
2022-08-03T08:43:43.789Z,35.37
2022-08-03T08:46:48.061Z,35.55
2022-08-03T08:50:08.920Z,36.47
2022-08-03T08:53:18.158Z,36.35
2022-08-03T08:56:25.833Z,34.64
2022-08-03T08:59:48.275Z,33.51
2022-08-03T09:02:53.063Z,35.64
2022-08-03T09:05:56.494Z,34.35
2022-08-03T09:08:59.326Z,34.48
2022-08-03T09:12:27.179Z,36.71
2022-08-03T09:15:28.335Z,36.50
2022-08-03T09:18:32.580Z,36.80
2022-08-03T09:21:35.762Z,37.89
2022-08-03T09:25:21.684Z,38.65
2022-08-03T09:29:01.491Z,36.92
2022-08-03T09:31:46.888Z,37.37
2022-08-03T09:34:55.337Z,37.77
2022-08-03T09:38:26.283Z,36.01
2022-08-03T09:41:29.625Z,34.52
2022-08-03T09:44:43.532Z,36.54
2022-08-03T09:47:46.083Z,37.65
2022-08-03T09:50:56.967Z,39.49
2022-08-03T09:54:04.964Z,39.22
2022-08-03T09:57:21.229Z,38.16
2022-08-03T10:00:24.839Z,37.49
2022-08-03T10:03:30.339Z,37.24
2022-08-03T10:06:33.453Z,35.06
2022-08-03T10:09:37.939Z,35.12
2022-08-03T10:12:41.878Z,36.24
2022-08-03T10:16:22.022Z,38.88
2022-08-03T10:19:09.792Z,39.83
2022-08-03T10:22:27.516Z,40.86
2022-08-03T10:25:32.918Z,40.40
2022-08-03T10:28:45.066Z,41.04
2022-08-03T10:31:54.522Z,39.78
2022-08-03T10:35:18.942Z,41.33
2022-08-03T10:38:32.947Z,42.23
2022-08-03T10:41:42.633Z,41.40
2022-08-03T10:44:45.344Z,42.61
2022-08-03T10:47:49.843Z,41.59
2022-08-03T10:50:53.212Z,43.48
2022-08-03T10:53:55.972Z,44.80
2022-08-03T10:57:19.181Z,43.60
2022-08-03T11:00:49.859Z,43.44
2022-08-03T11:03:52.437Z,42.51
2022-08-03T11:07:18.355Z,42.94
2022-08-03T11:10:31.850Z,44.31
2022-08-03T11:13:34.804Z,43.58
2022-08-03T11:16:41.605Z,46.35
2022-08-03T11:19:57.023Z,45.21
2022-08-03T11:23:01.764Z,44.66
2022-08-03T11:26:19.162Z,41.98
2022-08-03T11:29:30.242Z,41.49
2022-08-03T11:32:48.486Z,41.57
2022-08-03T11:36:02.054Z,43.31
2022-08-03T11:39:16.852Z,43.09
2022-08-03T11:42:23.097Z,42.53
2022-08-03T11:45:26.061Z,46.21
2022-08-03T11:48:34.932Z,46.72
2022-08-03T11:51:39.878Z,45.45
2022-08-03T11:54:43.350Z,45.24
2022-08-03T11:59:18.813Z,46.22
2022-08-03T12:01:11.481Z,45.35
2022-08-03T12:04:16.258Z,46.94
2022-08-03T12:07:25.067Z,47.14
2022-08-03T12:10:48.761Z,47.19
2022-08-03T12:14:44.309Z,49.11
2022-08-03T12:17:14.257Z,47.95
2022-08-03T12:20:34.793Z,48.04
2022-08-03T12:23:38.782Z,43.94
2022-08-03T12:26:58.474Z,41.43
2022-08-03T12:30:04.680Z,39.99
2022-08-03T12:33:17.556Z,42.42
2022-08-03T12:36:22.013Z,44.42
2022-08-03T12:39:27.550Z,46.91
2022-08-03T12:42:35.927Z,47.88
2022-08-03T12:45:38.783Z,45.72
2022-08-03T12:49:11.406Z,39.64
2022-08-03T12:52:14.017Z,40.41
2022-08-03T12:55:20.727Z,43.15
2022-08-03T12:58:36.445Z,44.89
2022-08-03T13:01:55.313Z,43.55
2022-08-03T13:05:00.176Z,44.88
2022-08-03T13:08:03.224Z,46.01
2022-08-03T13:11:19.125Z,43.87
2022-08-03T13:14:23.676Z,45.41
2022-08-03T13:17:27.490Z,48.62
2022-08-03T13:20:30.674Z,48.55
2022-08-03T13:23:33.933Z,50.58
2022-08-03T13:26:36.728Z,51.06
2022-08-03T13:29:39.404Z,48.18
2022-08-03T13:32:42.704Z,46.68
2022-08-03T13:35:45.217Z,48.52
2022-08-03T13:38:48.122Z,48.52
2022-08-03T13:41:50.774Z,50.00
2022-08-03T13:44:53.656Z,47.95
2022-08-03T13:47:56.268Z,49.24
2022-08-03T13:51:02.561Z,47.59
2022-08-03T13:54:08.366Z,47.94
2022-08-03T13:58:04.544Z,47.96
2022-08-03T14:00:34.739Z,46.62
2022-08-03T14:03:37.609Z,44.48
2022-08-03T14:06:40.184Z,46.44
2022-08-03T14:09:48.712Z,47.56
2022-08-03T14:12:51.296Z,49.44
2022-08-03T14:15:55.619Z,49.48
2022-08-03T14:18:59.081Z,48.95
2022-08-03T14:22:06.855Z,47.56
2022-08-03T14:25:09.964Z,48.14
2022-08-03T14:28:13.600Z,48.50
2022-08-03T14:32:10.943Z,46.25
2022-08-03T14:34:38.973Z,44.16
2022-08-03T14:37:41.605Z,37.72
2022-08-03T14:40:50.996Z,36.21
2022-08-03T14:44:01.707Z,35.85
2022-08-03T14:47:05.202Z,36.16
2022-08-03T14:50:38.635Z,35.44
2022-08-03T14:53:31.415Z,34.45
2022-08-03T14:56:33.955Z,34.36
2022-08-03T14:59:55.826Z,34.23
2022-08-03T15:02:59.337Z,34.42
2022-08-03T15:06:02.314Z,34.72
2022-08-03T15:09:21.737Z,36.07
2022-08-03T15:12:26.429Z,38.04
2022-08-03T15:15:29.285Z,38.22
2022-08-03T15:18:32.361Z,35.53
2022-08-03T15:21:47.257Z,34.28
2022-08-03T15:24:50.473Z,33.91
2022-08-03T15:28:03.320Z,33.74
2022-08-03T15:31:07.579Z,35.65
2022-08-03T15:34:11.802Z,36.64
2022-08-03T15:37:23.237Z,36.15
2022-08-03T15:40:25.971Z,34.60
2022-08-03T15:43:28.790Z,33.60
2022-08-03T15:46:31.342Z,33.06
2022-08-03T15:49:35.449Z,32.52
2022-08-03T15:52:38.282Z,32.12
2022-08-03T15:55:41.279Z,32.08
2022-08-03T15:59:09.356Z,32.08
2022-08-03T16:02:06.662Z,32.00
2022-08-03T16:05:27.788Z,31.72
2022-08-03T16:08:48.369Z,31.81
2022-08-03T16:11:51.165Z,32.08
2022-08-03T16:14:54.000Z,32.51
2022-08-03T16:17:57.327Z,32.56
2022-08-03T16:21:00.658Z,32.88
2022-08-03T16:24:03.790Z,33.25
2022-08-03T16:27:37.420Z,32.77
2022-08-03T16:30:33.831Z,32.73
2022-08-03T16:33:36.551Z,31.75
2022-08-03T16:36:39.349Z,31.66
2022-08-03T16:39:42.076Z,33.70
2022-08-03T16:42:53.817Z,35.21
2022-08-03T16:45:56.878Z,34.21
2022-08-03T16:48:59.980Z,33.70
2022-08-03T16:52:02.588Z,32.76
2022-08-03T16:55:06.709Z,31.73
2022-08-03T16:58:12.574Z,31.22
2022-08-03T17:01:21.931Z,30.94
2022-08-03T17:04:28.229Z,30.69
2022-08-03T17:07:32.177Z,30.47
2022-08-03T17:10:38.106Z,30.41
2022-08-03T17:13:41.749Z,30.27
2022-08-03T17:16:52.571Z,30.19
2022-08-03T17:19:58.459Z,30.08
2022-08-03T17:23:34.973Z,29.99
2022-08-03T17:26:44.800Z,29.92
2022-08-03T17:29:50.229Z,29.83
2022-08-03T17:32:57.464Z,29.76
2022-08-03T17:36:00.867Z,29.71
2022-08-03T17:39:06.539Z,29.62
2022-08-03T17:42:30.422Z,29.43
2022-08-03T17:45:52.077Z,29.41
2022-08-03T17:48:55.493Z,29.27
2022-08-03T17:52:17.559Z,29.18
2022-08-03T17:55:56.382Z,29.06
2022-08-03T17:58:57.978Z,28.99
2022-08-03T18:02:47.740Z,28.90
2022-08-03T18:06:12.869Z,28.80
2022-08-03T18:10:04.239Z,28.67
2022-08-03T18:12:47.403Z,28.45
2022-08-03T18:16:01.777Z,28.29
2022-08-03T18:19:09.231Z,28.19
2022-08-03T18:22:13.536Z,28.11
2022-08-03T18:25:20.952Z,27.97
2022-08-03T18:28:43.273Z,27.85
2022-08-03T18:32:03.607Z,27.69
2022-08-03T18:35:07.775Z,27.69
2022-08-03T18:38:32.352Z,27.71
2022-08-03T18:41:36.535Z,27.63
2022-08-03T18:44:53.238Z,27.44
2022-08-03T18:48:27.124Z,27.37
2022-08-03T18:51:43.319Z,27.34
2022-08-03T18:55:21.438Z,27.30
2022-08-03T18:58:52.266Z,27.26
2022-08-03T19:05:24.776Z,26.90
2022-08-03T19:08:57.712Z,26.84
2022-08-03T19:12:30.840Z,26.83
2022-08-03T19:15:51.046Z,26.68
2022-08-03T19:18:56.936Z,26.56
2022-08-03T19:22:00.706Z,26.45
2022-08-03T19:25:05.061Z,26.36
2022-08-03T19:28:08.789Z,26.36
2022-08-03T19:31:13.770Z,26.61
2022-08-03T19:34:18.413Z,26.70
2022-08-03T19:37:22.182Z,26.63
2022-08-03T19:40:27.321Z,26.60
2022-08-03T19:43:53.210Z,26.58
2022-08-03T19:47:10.064Z,26.53
2022-08-03T19:50:14.099Z,26.43
2022-08-03T19:53:17.938Z,26.39
2022-08-03T19:56:25.049Z,26.41
2022-08-03T19:59:28.803Z,26.31
2022-08-03T20:02:33.688Z,26.13
2022-08-03T20:05:45.003Z,25.92
2022-08-03T20:08:55.500Z,25.84
2022-08-03T20:12:02.049Z,25.73
2022-08-03T20:15:06.004Z,25.55
2022-08-03T20:18:16.892Z,25.45
2022-08-03T20:21:24.598Z,25.37
2022-08-03T20:24:31.832Z,25.26
2022-08-03T20:31:07.242Z,25.10
2022-08-03T20:34:10.225Z,25.04
2022-08-03T20:37:13.101Z,24.98
2022-08-03T20:40:15.824Z,25.16
2022-08-03T20:43:19.935Z,25.46
2022-08-03T20:46:35.294Z,25.30
2022-08-03T20:49:46.244Z,25.20
2022-08-03T20:52:50.564Z,25.08
2022-08-03T20:56:02.154Z,25.44
2022-08-03T20:59:07.372Z,25.34
2022-08-03T21:02:30.112Z,25.24
2022-08-03T21:05:51.007Z,25.18
2022-08-03T21:09:04.689Z,24.94
2022-08-03T21:12:11.902Z,24.74
2022-08-03T21:13:06.881Z,25.16
2022-08-03T21:13:11.242Z,27.04
2022-08-03T21:15:59.606Z,24.63
2022-08-03T21:18:46.511Z,24.53
2022-08-03T21:21:50.587Z,24.49
2022-08-03T21:24:56.919Z,24.45
2022-08-03T21:28:00.883Z,24.40
2022-08-03T21:31:04.199Z,24.30
2022-08-03T21:34:07.105Z,24.24
2022-08-03T21:37:11.859Z,24.15
2022-08-03T21:40:17.993Z,24.05
2022-08-03T21:43:21.541Z,24.01
2022-08-03T21:46:26.726Z,23.98
2022-08-03T21:49:52.010Z,23.91
2022-08-03T21:52:57.307Z,23.80
2022-08-03T21:56:11.423Z,23.71
2022-08-03T21:59:19.335Z,23.62
2022-08-03T22:02:27.440Z,23.52
2022-08-03T22:05:43.660Z,23.39
2022-08-03T22:08:52.711Z,23.28
2022-08-03T22:11:55.537Z,23.22
2022-08-03T22:15:01.925Z,23.21
2022-08-03T22:18:06.418Z,23.36
2022-08-03T22:21:14.125Z,23.27
2022-08-03T22:24:19.745Z,23.23
2022-08-03T22:27:31.195Z,23.19
2022-08-03T22:30:35.227Z,23.11
2022-08-03T22:33:38.481Z,23.01
2022-08-03T22:36:42.305Z,22.94
2022-08-03T22:39:45.112Z,22.89
2022-08-03T22:42:51.934Z,22.84
2022-08-03T22:46:09.616Z,22.81
2022-08-03T22:49:16.410Z,22.75
2022-08-03T22:52:20.252Z,22.70
2022-08-03T22:55:24.732Z,22.66
2022-08-03T22:58:27.842Z,22.64
2022-08-03T23:01:37.105Z,22.67
2022-08-03T23:04:41.357Z,22.69
2022-08-03T23:07:45.689Z,22.59
2022-08-03T23:10:50.209Z,22.56
2022-08-03T23:13:55.464Z,22.71
2022-08-03T23:17:03.294Z,22.74
2022-08-03T23:20:08.919Z,22.82
2022-08-03T23:23:11.910Z,22.74
2022-08-03T23:26:17.528Z,22.63
2022-08-03T23:29:21.744Z,22.55
2022-08-03T23:32:26.700Z,22.68
2022-08-03T23:36:18.705Z,22.57
2022-08-03T23:39:12.449Z,22.46
2022-08-03T23:42:18.213Z,22.37
2022-08-03T23:45:21.055Z,22.30
2022-08-03T23:48:24.780Z,22.28
2022-08-03T23:52:03.255Z,22.17
2022-08-03T23:55:24.464Z,22.04
2022-08-03T23:58:48.506Z,21.98
